createdAt,value
2016-12-11T10:58:36.463Z,23.48
2016-12-11T10:59:47.645Z,23.38
2016-12-11T11:00:58.822Z,23.43
2016-12-11T11:02:09.954Z,23.51
2016-12-11T11:03:21.143Z,23.51
2016-12-11T11:04:32.282Z,23.54
2016-12-11T11:05:43.456Z,23.57
2016-12-11T11:06:54.616Z,23.55
2016-12-11T11:08:06.319Z,23.65
2016-12-11T11:09:17.461Z,23.51
2016-12-11T11:10:28.632Z,23.48
2016-12-11T11:11:39.813Z,23.54
2016-12-11T11:12:50.980Z,23.54
2016-12-11T11:14:02.686Z,23.46
2016-12-11T11:15:13.841Z,23.36
2016-12-11T11:16:25.527Z,23.27
2016-12-11T11:17:36.678Z,23.16
2016-12-11T11:18:47.810Z,23.23
2016-12-11T11:19:58.946Z,23.33
2016-12-11T11:21:10.093Z,23.27
2016-12-11T11:22:21.280Z,23.28
2016-12-11T11:23:32.444Z,23.38
2016-12-11T11:24:43.599Z,23.42
2016-12-11T11:25:54.745Z,23.38
2016-12-11T11:27:07.030Z,23.31
2016-12-11T11:28:18.165Z,23.28
2016-12-11T11:29:29.291Z,23.46
2016-12-11T11:30:40.436Z,23.6
2016-12-11T11:31:51.574Z,23.73
2016-12-11T11:33:02.717Z,23.9
2016-12-11T11:34:13.888Z,23.88
2016-12-11T11:35:25.639Z,23.85
2016-12-11T11:36:36.802Z,23.94
2016-12-11T11:37:47.970Z,24.09
2016-12-11T11:38:59.156Z,24.09
2016-12-11T11:40:10.310Z,23.98
2016-12-11T11:41:21.469Z,23.84
2016-12-11T11:42:32.638Z,23.85
2016-12-11T11:43:43.816Z,23.84
2016-12-11T11:44:54.986Z,23.88
2016-12-11T11:46:06.152Z,23.88
2016-12-11T11:47:17.295Z,23.94
2016-12-11T11:48:28.448Z,23.94
2016-12-11T11:49:39.609Z,23.9
2016-12-11T11:50:50.755Z,23.95
2016-12-11T11:52:01.898Z,23.88
2016-12-11T11:53:13.060Z,24.05
2016-12-11T11:54:24.175Z,24.02
2016-12-11T11:55:35.328Z,24.05
2016-12-11T11:56:46.475Z,23.78
2016-12-11T11:57:57.651Z,23.88
2016-12-11T11:59:09.886Z,23.76
2016-12-11T12:00:22.722Z,23.91
2016-12-11T12:01:33.903Z,23.76
2016-12-11T12:02:45.043Z,23.75
2016-12-11T12:03:56.228Z,23.72
2016-12-11T12:05:07.355Z,23.55
2016-12-11T12:06:18.505Z,23.57
2016-12-11T12:07:29.662Z,23.72
2016-12-11T12:08:40.816Z,23.7
2016-12-11T12:09:51.959Z,23.68
2016-12-11T12:11:03.086Z,23.66
2016-12-11T12:12:14.228Z,23.75
2016-12-11T12:13:25.390Z,23.79
2016-12-11T12:14:36.556Z,23.91
2016-12-11T12:15:47.730Z,23.8
2016-12-11T12:16:58.892Z,23.7
2016-12-11T12:18:10.048Z,23.6
2016-12-11T12:19:21.209Z,23.55
2016-12-11T12:20:32.628Z,23.48
2016-12-11T12:21:43.775Z,23.46
2016-12-11T12:22:54.966Z,23.4
2016-12-11T12:24:06.107Z,23.31
2016-12-11T12:25:17.281Z,23.43
2016-12-11T12:26:28.469Z,23.33
2016-12-11T12:27:39.632Z,23.4
2016-12-11T12:28:50.802Z,23.58
2016-12-11T12:30:01.965Z,23.55
2016-12-11T12:31:13.705Z,23.54
2016-12-11T12:32:24.894Z,23.61
2016-12-11T12:33:36.060Z,23.55
2016-12-11T12:34:47.218Z,23.43
2016-12-11T12:35:58.367Z,23.4
2016-12-11T12:37:09.527Z,23.28
2016-12-11T12:38:20.662Z,23.32
2016-12-11T12:39:31.815Z,23.22
2016-12-11T12:40:42.969Z,22.8
2016-12-11T12:41:54.127Z,22.51
2016-12-11T12:43:05.278Z,22.47
2016-12-11T12:44:16.433Z,22.46
2016-12-11T12:45:27.612Z,22.47
2016-12-11T12:46:38.762Z,22.4
2016-12-11T12:47:50.488Z,22.51
2016-12-11T12:49:01.646Z,22.54
2016-12-11T12:50:12.841Z,22.47
2016-12-11T12:51:23.999Z,22.58
2016-12-11T12:52:35.171Z,22.75
2016-12-11T12:53:46.318Z,22.77
2016-12-11T12:54:57.470Z,22.77
2016-12-11T12:56:08.652Z,22.77
2016-12-11T12:57:20.380Z,22.77
2016-12-11T12:58:31.514Z,22.68
2016-12-11T12:59:43.320Z,22.82
2016-12-11T13:00:55.785Z,22.72
2016-12-11T13:02:06.907Z,22.47
2016-12-11T13:03:18.069Z,22.49
2016-12-11T13:04:29.289Z,22.51
2016-12-11T13:05:40.437Z,22.55
2016-12-11T13:06:51.572Z,22.7
2016-12-11T13:08:02.760Z,22.77
2016-12-11T13:09:13.919Z,22.79
2016-12-11T13:10:25.080Z,22.72
2016-12-11T13:11:36.250Z,22.57
2016-12-11T13:12:47.400Z,22.64
2016-12-11T13:13:58.614Z,22.57
2016-12-11T13:15:09.734Z,22.43
2016-12-11T13:16:20.857Z,22.49
2016-12-11T13:17:31.996Z,22.39
2016-12-11T13:18:43.160Z,22.4
2016-12-11T13:19:54.322Z,22.42
2016-12-11T13:21:05.483Z,22.57
2016-12-11T13:22:16.678Z,22.61
2016-12-11T13:23:27.837Z,22.72
2016-12-11T13:24:38.974Z,22.86
2016-12-11T13:25:50.143Z,22.98
2016-12-11T13:27:01.273Z,23.07
2016-12-11T13:28:12.418Z,23.25
2016-12-11T13:29:23.551Z,23.17
2016-12-11T13:30:34.715Z,23.19
2016-12-11T13:31:45.850Z,23.19
2016-12-11T13:32:57.572Z,23.25
2016-12-11T13:34:08.754Z,23.25
2016-12-11T13:35:19.917Z,23.23
2016-12-11T13:36:31.076Z,23.23
2016-12-11T13:37:42.235Z,23.16
2016-12-11T13:38:53.412Z,23.15
2016-12-11T13:40:04.556Z,23.05
2016-12-11T13:41:15.739Z,22.97
2016-12-11T13:42:26.884Z,22.95
2016-12-11T13:43:38.033Z,23.07
2016-12-11T13:44:49.208Z,23.04
2016-12-11T13:46:00.338Z,23.04
2016-12-11T13:47:11.553Z,23.13
2016-12-11T13:48:22.730Z,23.19
2016-12-11T13:49:33.888Z,23.32
2016-12-11T13:50:45.039Z,23.25
2016-12-11T13:51:56.180Z,23.05
2016-12-11T13:53:07.340Z,23.05
2016-12-11T13:54:18.498Z,22.98
2016-12-11T13:55:29.637Z,23.02
2016-12-11T13:56:40.774Z,23.12
2016-12-11T13:57:51.925Z,23.02
2016-12-11T13:59:03.117Z,23.15
2016-12-11T14:00:14.833Z,23.27
2016-12-11T14:01:25.986Z,23.32
2016-12-11T14:02:37.137Z,23.42
2016-12-11T14:03:48.289Z,23.42
2016-12-11T14:04:59.459Z,23.48
2016-12-11T14:06:10.656Z,23.39
2016-12-11T14:07:21.804Z,23.28
2016-12-11T14:08:32.931Z,23.01
2016-12-11T14:09:44.108Z,22.85
2016-12-11T14:10:55.279Z,22.88
2016-12-11T14:12:06.435Z,22.75
2016-12-11T14:13:17.597Z,22.67
2016-12-11T14:14:28.775Z,22.57
2016-12-11T14:15:39.924Z,22.61
2016-12-11T14:16:51.054Z,22.7
2016-12-11T14:18:02.249Z,22.57
2016-12-11T14:19:13.374Z,22.57
2016-12-11T14:20:24.520Z,22.65
2016-12-11T14:21:35.661Z,22.76
2016-12-11T14:22:46.857Z,22.68
2016-12-11T14:23:58.005Z,22.79
2016-12-11T14:25:09.163Z,22.83
2016-12-11T14:26:20.312Z,22.9
2016-12-11T14:27:31.470Z,23.04
2016-12-11T14:28:42.596Z,23.2
2016-12-11T14:29:53.803Z,23.39
2016-12-11T14:31:04.947Z,23.57
2016-12-11T14:32:16.107Z,23.79
2016-12-11T14:33:27.283Z,23.85
2016-12-11T14:34:38.464Z,23.97
2016-12-11T14:35:49.608Z,23.9
2016-12-11T14:37:00.788Z,24.08
2016-12-11T14:38:11.962Z,24.2
2016-12-11T14:39:23.111Z,24.39
2016-12-11T14:40:34.280Z,24.55
2016-12-11T14:41:45.430Z,24.67
2016-12-11T14:42:56.585Z,24.71
2016-12-11T14:44:07.760Z,24.9
2016-12-11T14:45:18.898Z,24.69
2016-12-11T14:46:30.100Z,25.03
2016-12-11T14:47:41.273Z,25.02
2016-12-11T14:48:52.424Z,24.84
2016-12-11T14:50:03.599Z,24.87
2016-12-11T14:51:14.743Z,25.03
2016-12-11T14:52:26.450Z,25.2
2016-12-11T14:54:17.452Z,25.54
2016-12-11T14:55:28.626Z,26.18
2016-12-11T14:56:39.781Z,26.25
2016-12-11T14:57:50.955Z,26.21
2016-12-11T14:59:02.093Z,26.65
2016-12-11T15:00:13.238Z,26.94
2016-12-11T15:01:24.385Z,27.07
2016-12-11T15:02:35.537Z,27.25
2016-12-11T15:03:46.699Z,27.22
2016-12-11T15:04:58.420Z,27.24
2016-12-11T15:06:09.579Z,26.91
2016-12-11T15:07:20.757Z,26.82
2016-12-11T15:08:31.901Z,26.15
2016-12-11T15:09:43.052Z,25.95
2016-12-11T15:10:54.195Z,26.17
2016-12-11T15:12:05.381Z,25.95
2016-12-11T15:13:16.572Z,25.94
2016-12-11T15:14:27.727Z,25.8
2016-12-11T15:15:38.909Z,25.72
2016-12-11T15:16:50.089Z,25.54
2016-12-11T15:18:01.261Z,25.42
2016-12-11T15:19:12.439Z,25.54
2016-12-11T15:20:23.565Z,25.6
2016-12-11T15:21:34.705Z,25.79
2016-12-11T15:22:45.851Z,26.05
2016-12-11T15:23:57.016Z,26.25
2016-12-11T15:25:08.185Z,26.57
2016-12-11T15:26:19.333Z,26.99
2016-12-11T15:27:30.490Z,27.28
2016-12-11T15:28:41.624Z,27.25
2016-12-11T15:29:52.809Z,27.34
2016-12-11T15:31:04.007Z,27.36
2016-12-11T15:32:15.150Z,27.07
2016-12-11T15:33:26.326Z,27.24
2016-12-11T15:34:37.465Z,27.47
2016-12-11T15:35:48.665Z,27.99
2016-12-11T15:36:59.813Z,28.68
2016-12-11T15:38:10.964Z,28.24
2016-12-11T15:39:22.126Z,28.19
2016-12-11T15:40:33.270Z,28.04
2016-12-11T15:41:44.436Z,27.99
2016-12-11T15:42:56.145Z,27.82
2016-12-11T15:45:08.549Z,27.81
2016-12-11T15:46:19.747Z,27.97
2016-12-11T15:47:30.926Z,27.82
2016-12-11T15:48:42.065Z,27.44
2016-12-11T15:49:53.269Z,27.03
2016-12-11T15:51:04.428Z,26.69
2016-12-11T15:52:15.605Z,26.57
2016-12-11T15:53:26.777Z,26.5
2016-12-11T15:54:37.922Z,26.66
2016-12-11T15:55:49.069Z,26.84
2016-12-11T15:57:00.242Z,27.06
2016-12-11T15:58:11.426Z,27.5
2016-12-11T15:59:22.597Z,27.67
2016-12-11T16:00:33.794Z,27.82
2016-12-11T16:01:44.955Z,27.92
2016-12-11T16:02:56.089Z,28.24
2016-12-11T16:04:07.812Z,28.31
2016-12-11T16:05:18.982Z,29
2016-12-11T16:06:30.129Z,29.39
2016-12-11T16:07:41.287Z,29.76
2016-12-11T16:08:52.474Z,30.07
2016-12-11T16:10:03.651Z,30.13
2016-12-11T16:11:14.844Z,29.64
2016-12-11T16:12:25.999Z,29.89
2016-12-11T16:13:37.166Z,30.57
2016-12-11T16:14:48.307Z,30.75
2016-12-11T16:16:00.005Z,30.16
2016-12-11T16:17:11.160Z,29.89
2016-12-11T16:18:22.312Z,29.64
2016-12-11T16:19:33.468Z,29.15
2016-12-11T16:20:44.644Z,28.56
2016-12-11T16:21:55.848Z,28.46
2016-12-11T16:23:07.020Z,28.29
2016-12-11T16:24:18.197Z,28.03
2016-12-11T16:25:29.393Z,27.66
2016-12-11T16:26:40.548Z,27.59
2016-12-11T16:27:51.718Z,27.49
2016-12-11T16:29:02.893Z,27.1
2016-12-11T16:30:14.068Z,27.09
2016-12-11T16:31:25.801Z,26.94
2016-12-11T16:32:36.969Z,26.82
2016-12-11T16:33:48.132Z,26.72
2016-12-11T16:34:59.290Z,26.7
2016-12-11T16:36:10.463Z,26.55
2016-12-11T16:37:30.246Z,26.5
2016-12-11T16:38:41.386Z,26.44
2016-12-11T16:39:52.542Z,26.43
2016-12-11T16:41:03.663Z,26.33
2016-12-11T16:42:15.392Z,26.26
2016-12-11T16:43:26.547Z,25.82
2016-12-11T16:44:37.720Z,23.94
2016-12-11T16:45:48.889Z,22.09
2016-12-11T16:47:00.051Z,21.24
2016-12-11T16:48:11.232Z,20.73
2016-12-11T16:49:22.374Z,20.47
2016-12-11T16:50:33.561Z,20.42
2016-12-11T16:51:44.687Z,20.58
2016-12-11T16:52:55.841Z,20.58
2016-12-11T16:54:06.993Z,20.58
2016-12-11T16:55:18.151Z,20.57
2016-12-11T16:56:29.296Z,20.69
2016-12-11T16:57:40.423Z,20.69
2016-12-11T16:58:52.137Z,20.73
2016-12-11T17:00:03.293Z,20.79
2016-12-11T19:56:55.251Z,22.2
2016-12-11T19:58:06.425Z,22.18
2016-12-11T19:59:17.582Z,22.24
2016-12-11T20:00:28.773Z,22.22
2016-12-11T20:01:39.923Z,22.31
2016-12-11T20:02:51.055Z,22.39
2016-12-11T20:04:02.226Z,22.35
2016-12-11T20:05:13.434Z,22.35
2016-12-11T20:06:24.578Z,22.33
2016-12-11T20:07:35.754Z,22.22
2016-12-11T20:08:46.909Z,22.3
2016-12-11T20:09:58.066Z,22.06
2016-12-11T20:11:09.217Z,22.12
2016-12-11T20:12:20.373Z,22.14
2016-12-11T20:13:32.095Z,22.05
2016-12-11T20:14:43.301Z,22.09
2016-12-11T20:15:54.471Z,22.05
2016-12-11T20:17:05.636Z,22.09
2016-12-11T20:18:16.789Z,21.92
2016-12-11T20:19:28.512Z,21.99
2016-12-11T20:20:39.668Z,22.06
2016-12-11T20:21:50.826Z,22.06
2016-12-11T20:23:05.067Z,22.21
2016-12-11T20:24:16.578Z,22.17
2016-12-11T20:25:27.722Z,22.14
2016-12-11T20:26:38.879Z,22.14
2016-12-11T20:27:50.059Z,22.21
2016-12-11T20:29:01.209Z,22.3
2016-12-11T20:30:12.382Z,22.2
2016-12-11T20:31:23.540Z,22.31
2016-12-11T20:32:34.728Z,22.25
2016-12-11T20:33:45.913Z,22.24
2016-12-11T20:34:57.080Z,22.27
2016-12-11T20:36:08.236Z,22.24
2016-12-11T20:37:19.389Z,22.21
2016-12-11T20:38:31.190Z,22.17
2016-12-11T20:39:46.676Z,22.05
2016-12-11T20:40:57.809Z,22.05
2016-12-11T20:42:08.945Z,22.07
2016-12-11T20:43:20.099Z,22.15
2016-12-11T20:44:31.224Z,22.21
2016-12-11T20:45:42.381Z,22.3
2016-12-11T20:46:53.574Z,22.22
2016-12-11T20:48:04.726Z,22.33
2016-12-11T20:49:15.860Z,22.36
2016-12-11T20:50:27.013Z,22.36
2016-12-11T20:51:38.166Z,22.25
2016-12-11T20:52:49.326Z,22.09
2016-12-11T20:54:00.484Z,22.02
2016-12-11T20:55:11.636Z,22.03
2016-12-11T20:56:22.818Z,21.88
2016-12-11T20:57:33.933Z,21.91
2016-12-11T20:58:45.076Z,21.8
2016-12-11T20:59:56.218Z,21.91
2016-12-11T21:01:07.943Z,21.9
2016-12-11T21:02:19.102Z,21.9
2016-12-11T21:03:30.260Z,21.83
2016-12-11T21:04:41.424Z,21.86
2016-12-11T21:05:52.581Z,21.83
2016-12-11T21:07:03.712Z,21.83
2016-12-11T21:08:14.879Z,21.8
2016-12-11T21:09:26.000Z,21.91
2016-12-11T21:10:37.143Z,21.86
2016-12-11T21:11:48.280Z,21.9
2016-12-11T21:12:59.439Z,21.77
2016-12-11T21:14:10.579Z,21.91
2016-12-11T21:15:21.732Z,21.86
2016-12-11T21:16:32.913Z,21.75
2016-12-11T21:17:44.629Z,21.71
2016-12-11T21:18:55.794Z,21.68
2016-12-11T21:20:06.941Z,21.69
2016-12-11T21:21:18.117Z,21.68
2016-12-11T21:22:29.274Z,21.69
2016-12-11T21:23:40.458Z,21.67
2016-12-11T21:24:51.591Z,21.64
2016-12-11T21:26:02.736Z,21.61
2016-12-11T21:27:13.882Z,21.54
2016-12-11T21:28:25.025Z,21.56
2016-12-11T21:29:36.234Z,21.54
2016-12-11T21:30:47.402Z,21.52
2016-12-11T21:31:58.560Z,21.49
2016-12-11T21:33:10.279Z,21.58
2016-12-11T21:34:21.434Z,21.61
2016-12-11T21:35:32.595Z,21.54
2016-12-11T21:36:43.746Z,21.47
2016-12-11T21:37:54.880Z,21.46
2016-12-11T21:39:06.023Z,21.46
2016-12-11T21:40:17.165Z,21.53
2016-12-11T21:41:28.384Z,21.47
2016-12-11T21:42:39.540Z,21.43
2016-12-11T21:43:50.695Z,21.49
2016-12-11T21:45:01.842Z,21.54
2016-12-11T21:46:12.991Z,21.52
2016-12-11T21:47:24.164Z,21.59
2016-12-11T21:48:35.361Z,21.53
2016-12-11T21:49:46.505Z,21.62
2016-12-11T21:50:57.624Z,21.68
2016-12-11T21:52:08.809Z,21.67
2016-12-11T21:53:19.974Z,21.71
2016-12-11T21:54:31.126Z,21.72
2016-12-11T21:55:42.294Z,21.74
2016-12-11T21:56:53.463Z,21.69
2016-12-11T21:58:04.610Z,21.74
2016-12-11T21:59:15.735Z,21.77
2016-12-11T22:00:26.899Z,21.75
2016-12-11T22:01:38.018Z,21.74
2016-12-11T22:02:49.162Z,21.77
2016-12-11T22:04:00.330Z,21.75
2016-12-11T22:05:11.501Z,21.72
2016-12-11T22:06:22.641Z,21.84
2016-12-11T22:07:33.797Z,21.86
2016-12-11T22:08:44.947Z,21.84
2016-12-11T22:09:56.107Z,21.83
2016-12-11T22:11:07.257Z,21.88
2016-12-11T22:12:18.428Z,21.9
2016-12-11T22:13:29.570Z,21.86
2016-12-11T22:14:40.729Z,21.86
2016-12-11T22:15:51.905Z,21.91
2016-12-11T22:17:03.087Z,21.88
2016-12-11T22:18:14.241Z,21.75
2016-12-11T22:19:25.420Z,21.83
2016-12-11T22:20:36.580Z,21.86
2016-12-11T22:21:47.739Z,21.88
2016-12-11T22:22:58.902Z,21.91
2016-12-11T22:24:10.054Z,21.86
2016-12-11T22:25:21.204Z,21.96
2016-12-11T22:26:32.374Z,21.91
2016-12-11T22:27:43.510Z,21.9
2016-12-11T22:28:54.703Z,21.92
2016-12-11T22:30:05.871Z,21.88
2016-12-11T22:31:17.019Z,21.83
2016-12-11T22:32:28.187Z,21.92
2016-12-11T22:33:39.320Z,21.75
2016-12-11T22:34:50.456Z,21.84
2016-12-11T22:36:01.602Z,21.91
2016-12-11T22:37:12.774Z,21.86
2016-12-11T22:38:23.916Z,21.9
2016-12-11T22:39:35.076Z,21.92
2016-12-11T22:40:46.202Z,21.92
2016-12-11T22:41:57.338Z,21.83
2016-12-11T22:43:08.473Z,21.84
2016-12-11T22:44:19.620Z,21.9
2016-12-11T22:45:30.780Z,21.82
2016-12-11T22:46:41.929Z,21.83
2016-12-11T22:47:53.080Z,21.84
2016-12-11T22:49:04.247Z,21.88
2016-12-11T22:50:15.383Z,21.8
2016-12-11T22:51:26.525Z,21.79
2016-12-11T22:52:38.217Z,21.82
2016-12-11T22:53:49.392Z,21.71
2016-12-11T22:55:00.564Z,21.67
2016-12-11T22:56:11.713Z,21.74
2016-12-11T22:57:22.887Z,21.68
2016-12-11T22:58:34.058Z,21.69
2016-12-11T22:59:45.213Z,21.72
2016-12-11T23:00:56.383Z,21.74
2016-12-11T23:02:07.529Z,21.72
2016-12-11T23:03:18.688Z,21.82
2016-12-11T23:04:29.832Z,21.75
2016-12-11T23:05:40.992Z,21.71
2016-12-11T23:06:52.147Z,21.74
2016-12-11T23:08:03.288Z,21.8
2016-12-11T23:09:14.438Z,21.71
2016-12-11T23:10:25.559Z,21.77
2016-12-11T23:11:36.749Z,21.72
2016-12-11T23:12:48.491Z,21.75
2016-12-11T23:13:59.626Z,21.71
2016-12-11T23:15:10.784Z,21.74
2016-12-11T23:16:21.908Z,21.71
2016-12-11T23:17:33.101Z,21.71
2016-12-11T23:18:44.236Z,21.72
2016-12-11T23:19:55.376Z,21.68
2016-12-11T23:21:06.530Z,21.8
2016-12-11T23:22:17.662Z,21.77
2016-12-11T23:23:28.816Z,21.67
2016-12-11T23:24:39.951Z,21.71
2016-12-11T23:25:51.090Z,21.72
2016-12-11T23:27:02.237Z,21.74
2016-12-11T23:28:13.411Z,21.8
2016-12-11T23:29:24.565Z,21.74
2016-12-11T23:30:35.702Z,21.75
2016-12-11T23:31:46.832Z,21.86
2016-12-11T23:32:57.982Z,21.82
2016-12-11T23:34:09.126Z,21.74
2016-12-11T23:35:20.277Z,21.86
2016-12-11T23:36:31.469Z,21.9
2016-12-11T23:37:42.610Z,21.75
2016-12-11T23:38:53.754Z,21.84
2016-12-11T23:40:04.912Z,21.82
2016-12-11T23:41:16.066Z,21.9
2016-12-11T23:42:27.211Z,21.91
2016-12-11T23:43:38.358Z,21.91
2016-12-11T23:44:49.513Z,21.83
2016-12-11T23:46:00.675Z,21.86
2016-12-11T23:47:11.823Z,21.74
2016-12-11T23:48:22.989Z,21.88
2016-12-11T23:49:34.150Z,21.88
2016-12-11T23:50:45.297Z,21.77
2016-12-11T23:51:56.446Z,21.84
2016-12-11T23:53:07.598Z,21.84
2016-12-11T23:54:18.744Z,21.82
2016-12-11T23:55:29.871Z,21.83
2016-12-11T23:56:41.020Z,21.84
2016-12-11T23:57:52.167Z,21.82
2016-12-11T23:59:03.307Z,21.9
